sensor_id;sensor_type;location;lat;lon;timestamp;pressure;altitude;pressure_sealevel;temperature;humidity
70728;BME280;58314;47.722;17.652;2022-08-19T00:00:46;99776.03;;;23.86;58.07
70728;BME280;58314;47.722;17.652;2022-08-19T00:03:47;99784.13;;;23.94;58.15
70728;BME280;58314;47.722;17.652;2022-08-19T00:06:48;99775.84;;;23.96;58.65
70728;BME280;58314;47.722;17.652;2022-08-19T00:09:49;99778.50;;;24.04;57.92
70728;BME280;58314;47.722;17.652;2022-08-19T00:12:50;99778.34;;;23.97;58.65
70728;BME280;58314;47.722;17.652;2022-08-19T00:15:51;99777.34;;;23.98;58.63
70728;BME280;58314;47.722;17.652;2022-08-19T00:18:53;99779.38;;;23.96;58.62
70728;BME280;58314;47.722;17.652;2022-08-19T00:21:55;99766.88;;;23.95;59.33
70728;BME280;58314;47.722;17.652;2022-08-19T00:24:56;99759.63;;;23.96;59.04
70728;BME280;58314;47.722;17.652;2022-08-19T00:27:57;99763.91;;;23.82;60.13
70728;BME280;58314;47.722;17.652;2022-08-19T00:30:59;99751.38;;;23.73;60.64
70728;BME280;58314;47.722;17.652;2022-08-19T00:34:00;99740.28;;;23.59;61.16
70728;BME280;58314;47.722;17.652;2022-08-19T00:37:00;99737.25;;;23.54;61.38
70728;BME280;58314;47.722;17.652;2022-08-19T00:40:03;99726.63;;;23.53;61.45
70728;BME280;58314;47.722;17.652;2022-08-19T00:43:09;99722.38;;;23.58;61.46
70728;BME280;58314;47.722;17.652;2022-08-19T00:46:10;99717.66;;;23.52;61.97
70728;BME280;58314;47.722;17.652;2022-08-19T00:49:39;99717.97;;;23.57;61.78
70728;BME280;58314;47.722;17.652;2022-08-19T00:52:40;99710.59;;;23.43;62.64
70728;BME280;58314;47.722;17.652;2022-08-19T00:55:46;99702.66;;;23.41;62.50
70728;BME280;58314;47.722;17.652;2022-08-19T00:58:48;99694.06;;;23.46;62.08
70728;BME280;58314;47.722;17.652;2022-08-19T01:01:48;99699.97;;;23.33;63.69
70728;BME280;58314;47.722;17.652;2022-08-19T01:04:49;99705.56;;;23.31;63.96
70728;BME280;58314;47.722;17.652;2022-08-19T01:07:50;99691.38;;;23.29;64.40
70728;BME280;58314;47.722;17.652;2022-08-19T01:10:54;99698.81;;;23.11;64.90
70728;BME280;58314;47.722;17.652;2022-08-19T01:13:55;99699.31;;;23.23;64.38
70728;BME280;58314;47.722;17.652;2022-08-19T01:16:57;99699.16;;;23.08;65.23
70728;BME280;58314;47.722;17.652;2022-08-19T01:20:00;99689.69;;;22.87;67.31
70728;BME280;58314;47.722;17.652;2022-08-19T01:23:01;99677.53;;;22.75;67.34
70728;BME280;58314;47.722;17.652;2022-08-19T01:26:02;99690.00;;;22.60;68.48
70728;BME280;58314;47.722;17.652;2022-08-19T01:29:03;99687.63;;;22.48;69.39
70728;BME280;58314;47.722;17.652;2022-08-19T01:32:04;99694.03;;;22.55;69.06
70728;BME280;58314;47.722;17.652;2022-08-19T01:35:06;99690.34;;;22.65;68.44
70728;BME280;58314;47.722;17.652;2022-08-19T01:38:10;99676.16;;;22.54;69.07
70728;BME280;58314;47.722;17.652;2022-08-19T01:41:12;99678.50;;;22.33;70.23
70728;BME280;58314;47.722;17.652;2022-08-19T01:44:15;99682.88;;;22.42;69.60
70728;BME280;58314;47.722;17.652;2022-08-19T01:47:16;99698.56;;;22.55;68.55
70728;BME280;58314;47.722;17.652;2022-08-19T01:50:17;99699.75;;;22.52;68.69
70728;BME280;58314;47.722;17.652;2022-08-19T01:53:18;99694.50;;;22.43;69.05
70728;BME280;58314;47.722;17.652;2022-08-19T01:56:19;99690.78;;;22.27;69.70
70728;BME280;58314;47.722;17.652;2022-08-19T01:59:21;99688.94;;;22.36;69.66
70728;BME280;58314;47.722;17.652;2022-08-19T02:02:23;99693.25;;;22.21;70.40
70728;BME280;58314;47.722;17.652;2022-08-19T02:05:24;99691.00;;;22.08;71.08
70728;BME280;58314;47.722;17.652;2022-08-19T02:08:26;99697.56;;;22.05;70.81
70728;BME280;58314;47.722;17.652;2022-08-19T02:11:29;99696.28;;;22.17;69.31
70728;BME280;58314;47.722;17.652;2022-08-19T02:14:33;99687.91;;;22.29;68.10
70728;BME280;58314;47.722;17.652;2022-08-19T02:17:35;99689.75;;;22.28;67.76
70728;BME280;58314;47.722;17.652;2022-08-19T02:20:38;99692.16;;;22.40;66.71
70728;BME280;58314;47.722;17.652;2022-08-19T02:23:39;99703.97;;;22.47;66.02
70728;BME280;58314;47.722;17.652;2022-08-19T02:26:39;99691.88;;;22.67;65.09
70728;BME280;58314;47.722;17.652;2022-08-19T02:29:40;99701.13;;;22.73;64.54
70728;BME280;58314;47.722;17.652;2022-08-19T02:32:41;99703.00;;;22.81;63.79
70728;BME280;58314;47.722;17.652;2022-08-19T02:35:44;99696.59;;;22.90;63.36
70728;BME280;58314;47.722;17.652;2022-08-19T02:38:44;99694.06;;;22.97;62.18
70728;BME280;58314;47.722;17.652;2022-08-19T02:41:45;99693.03;;;22.89;65.77
70728;BME280;58314;47.722;17.652;2022-08-19T02:44:46;99701.09;;;22.56;68.07
70728;BME280;58314;47.722;17.652;2022-08-19T02:47:46;99708.53;;;22.54;67.91
70728;BME280;58314;47.722;17.652;2022-08-19T02:50:49;99719.47;;;22.45;67.82
70728;BME280;58314;47.722;17.652;2022-08-19T02:53:56;99714.00;;;22.28;68.97
70728;BME280;58314;47.722;17.652;2022-08-19T02:56:57;99707.03;;;22.17;68.76
70728;BME280;58314;47.722;17.652;2022-08-19T02:59:58;99703.47;;;22.09;69.10
70728;BME280;58314;47.722;17.652;2022-08-19T03:02:59;99699.59;;;22.03;69.12
70728;BME280;58314;47.722;17.652;2022-08-19T03:06:15;99709.75;;;22.17;67.75
70728;BME280;58314;47.722;17.652;2022-08-19T03:09:18;99700.97;;;22.15;68.52
70728;BME280;58314;47.722;17.652;2022-08-19T03:12:19;99705.63;;;21.97;70.27
70728;BME280;58314;47.722;17.652;2022-08-19T03:15:20;99696.19;;;22.01;69.18
70728;BME280;58314;47.722;17.652;2022-08-19T03:18:21;99708.00;;;22.00;69.61
70728;BME280;58314;47.722;17.652;2022-08-19T03:21:24;99720.53;;;22.17;67.18
70728;BME280;58314;47.722;17.652;2022-08-19T03:24:25;99711.25;;;22.20;67.54
70728;BME280;58314;47.722;17.652;2022-08-19T03:27:25;99705.44;;;22.33;65.61
70728;BME280;58314;47.722;17.652;2022-08-19T03:30:26;99704.78;;;22.39;65.60
70728;BME280;58314;47.722;17.652;2022-08-19T03:33:28;99705.97;;;22.36;66.14
70728;BME280;58314;47.722;17.652;2022-08-19T03:36:29;99697.38;;;22.41;65.25
70728;BME280;58314;47.722;17.652;2022-08-19T03:39:30;99698.88;;;22.35;65.13
70728;BME280;58314;47.722;17.652;2022-08-19T03:42:30;99699.75;;;22.36;65.59
70728;BME280;58314;47.722;17.652;2022-08-19T03:45:31;99693.63;;;22.34;65.45
70728;BME280;58314;47.722;17.652;2022-08-19T03:48:33;99701.72;;;22.34;66.31
70728;BME280;58314;47.722;17.652;2022-08-19T03:51:37;99694.66;;;22.33;65.55
70728;BME280;58314;47.722;17.652;2022-08-19T03:54:39;99690.63;;;22.37;65.28
70728;BME280;58314;47.722;17.652;2022-08-19T03:57:39;99689.63;;;22.38;65.21
70728;BME280;58314;47.722;17.652;2022-08-19T04:00:42;99688.47;;;22.49;63.98
70728;BME280;58314;47.722;17.652;2022-08-19T04:03:43;99693.72;;;22.59;63.75
70728;BME280;58314;47.722;17.652;2022-08-19T04:06:46;99690.50;;;22.71;63.39
70728;BME280;58314;47.722;17.652;2022-08-19T04:09:48;99700.47;;;22.71;63.80
70728;BME280;58314;47.722;17.652;2022-08-19T04:12:49;99708.22;;;22.82;63.13
70728;BME280;58314;47.722;17.652;2022-08-19T04:15:50;99702.34;;;22.87;62.11
70728;BME280;58314;47.722;17.652;2022-08-19T04:18:51;99704.00;;;22.96;62.23
70728;BME280;58314;47.722;17.652;2022-08-19T04:21:54;99705.88;;;22.96;62.12
70728;BME280;58314;47.722;17.652;2022-08-19T04:24:54;99702.16;;;22.97;61.70
70728;BME280;58314;47.722;17.652;2022-08-19T04:27:55;99712.09;;;22.96;62.45
70728;BME280;58314;47.722;17.652;2022-08-19T04:30:56;99709.56;;;22.94;62.56
70728;BME280;58314;47.722;17.652;2022-08-19T04:33:58;99717.81;;;22.93;62.52
70728;BME280;58314;47.722;17.652;2022-08-19T04:36:59;99724.91;;;22.94;62.60
70728;BME280;58314;47.722;17.652;2022-08-19T04:40:05;99720.38;;;22.86;63.22
70728;BME280;58314;47.722;17.652;2022-08-19T04:43:25;99716.81;;;22.86;63.34
70728;BME280;58314;47.722;17.652;2022-08-19T04:46:26;99725.44;;;22.81;64.00
70728;BME280;58314;47.722;17.652;2022-08-19T04:49:27;99722.22;;;22.86;63.59
70728;BME280;58314;47.722;17.652;2022-08-19T04:52:28;99718.50;;;22.87;63.79
70728;BME280;58314;47.722;17.652;2022-08-19T04:55:31;99701.13;;;22.89;64.38
70728;BME280;58314;47.722;17.652;2022-08-19T04:58:31;99697.78;;;22.87;65.41
70728;BME280;58314;47.722;17.652;2022-08-19T05:01:33;99725.41;;;22.89;65.92
70728;BME280;58314;47.722;17.652;2022-08-19T05:04:34;99718.53;;;22.95;65.11
70728;BME280;58314;47.722;17.652;2022-08-19T05:07:36;99718.69;;;22.93;65.64
70728;BME280;58314;47.722;17.652;2022-08-19T05:10:38;99718.22;;;23.06;64.77
70728;BME280;58314;47.722;17.652;2022-08-19T05:13:41;99713.81;;;23.13;64.87
70728;BME280;58314;47.722;17.652;2022-08-19T05:16:42;99716.03;;;23.26;64.47
70728;BME280;58314;47.722;17.652;2022-08-19T05:19:43;99715.00;;;23.36;64.13
70728;BME280;58314;47.722;17.652;2022-08-19T05:23:13;99709.22;;;23.55;63.58
70728;BME280;58314;47.722;17.652;2022-08-19T05:26:15;99710.56;;;23.59;63.02
70728;BME280;58314;47.722;17.652;2022-08-19T05:29:20;99704.81;;;23.62;63.19
70728;BME280;58314;47.722;17.652;2022-08-19T05:32:21;99703.75;;;23.80;62.86
70728;BME280;58314;47.722;17.652;2022-08-19T05:35:23;99705.78;;;23.86;63.50
70728;BME280;58314;47.722;17.652;2022-08-19T05:38:25;99713.50;;;23.97;61.72
70728;BME280;58314;47.722;17.652;2022-08-19T05:41:27;99708.22;;;24.12;61.46
70728;BME280;58314;47.722;17.652;2022-08-19T05:44:31;99701.75;;;24.21;61.50
70728;BME280;58314;47.722;17.652;2022-08-19T05:47:33;99710.13;;;24.35;60.81
70728;BME280;58314;47.722;17.652;2022-08-19T05:50:35;99706.47;;;24.59;59.90
70728;BME280;58314;47.722;17.652;2022-08-19T05:53:38;99718.84;;;24.76;58.70
70728;BME280;58314;47.722;17.652;2022-08-19T05:56:40;99727.69;;;24.93;58.60
70728;BME280;58314;47.722;17.652;2022-08-19T05:59:41;99744.66;;;25.10;58.35
70728;BME280;58314;47.722;17.652;2022-08-19T06:02:42;99751.25;;;25.31;57.98
70728;BME280;58314;47.722;17.652;2022-08-19T06:05:42;99749.25;;;25.48;57.35
70728;BME280;58314;47.722;17.652;2022-08-19T06:08:43;99763.09;;;25.53;57.02
70728;BME280;58314;47.722;17.652;2022-08-19T06:11:53;99756.66;;;25.69;56.33
70728;BME280;58314;47.722;17.652;2022-08-19T06:14:55;99758.56;;;25.83;56.54
70728;BME280;58314;47.722;17.652;2022-08-19T06:17:55;99754.56;;;25.94;55.72
70728;BME280;58314;47.722;17.652;2022-08-19T06:20:56;99758.97;;;26.10;56.00
70728;BME280;58314;47.722;17.652;2022-08-19T06:23:58;99758.56;;;26.28;53.96
70728;BME280;58314;47.722;17.652;2022-08-19T06:27:03;99758.63;;;26.49;53.46
70728;BME280;58314;47.722;17.652;2022-08-19T06:30:06;99769.91;;;26.68;53.37
70728;BME280;58314;47.722;17.652;2022-08-19T06:33:07;99774.66;;;26.81;52.63
70728;BME280;58314;47.722;17.652;2022-08-19T06:36:19;99773.66;;;27.03;52.21
70728;BME280;58314;47.722;17.652;2022-08-19T06:39:24;99781.72;;;27.18;51.40
70728;BME280;58314;47.722;17.652;2022-08-19T06:42:25;99778.97;;;27.33;51.72
70728;BME280;58314;47.722;17.652;2022-08-19T06:45:26;99779.34;;;27.52;51.47
70728;BME280;58314;47.722;17.652;2022-08-19T06:48:26;99787.81;;;27.70;50.38
70728;BME280;58314;47.722;17.652;2022-08-19T06:51:27;99789.19;;;27.88;49.78
70728;BME280;58314;47.722;17.652;2022-08-19T06:54:28;99791.66;;;28.04;49.15
70728;BME280;58314;47.722;17.652;2022-08-19T06:57:33;99795.59;;;28.43;48.17
70728;BME280;58314;47.722;17.652;2022-08-19T07:00:34;99801.13;;;28.57;47.74
70728;BME280;58314;47.722;17.652;2022-08-19T07:03:36;99803.94;;;28.77;47.49
70728;BME280;58314;47.722;17.652;2022-08-19T07:06:37;99790.50;;;28.68;47.01
70728;BME280;58314;47.722;17.652;2022-08-19T07:09:41;99796.66;;;28.90;47.44
70728;BME280;58314;47.722;17.652;2022-08-19T07:12:42;99803.81;;;29.11;47.80
70728;BME280;58314;47.722;17.652;2022-08-19T07:15:42;99807.66;;;29.31;47.06
70728;BME280;58314;47.722;17.652;2022-08-19T07:18:43;99800.50;;;29.29;45.91
70728;BME280;58314;47.722;17.652;2022-08-19T07:21:46;99805.13;;;29.29;46.45
70728;BME280;58314;47.722;17.652;2022-08-19T07:24:47;99811.78;;;29.20;46.15
70728;BME280;58314;47.722;17.652;2022-08-19T07:27:51;99807.44;;;29.25;44.95
70728;BME280;58314;47.722;17.652;2022-08-19T07:30:52;99804.47;;;29.34;44.24
70728;BME280;58314;47.722;17.652;2022-08-19T07:33:54;99798.44;;;29.58;44.02
70728;BME280;58314;47.722;17.652;2022-08-19T07:36:58;99803.69;;;29.80;43.10
70728;BME280;58314;47.722;17.652;2022-08-19T07:40:00;99801.16;;;29.78;43.43
70728;BME280;58314;47.722;17.652;2022-08-19T07:43:01;99792.94;;;29.98;42.63
70728;BME280;58314;47.722;17.652;2022-08-19T07:46:02;99797.31;;;30.06;42.85
70728;BME280;58314;47.722;17.652;2022-08-19T07:49:04;99797.13;;;30.08;43.15
70728;BME280;58314;47.722;17.652;2022-08-19T07:52:08;99806.09;;;30.21;42.37
70728;BME280;58314;47.722;17.652;2022-08-19T07:55:09;99805.50;;;30.19;42.40
70728;BME280;58314;47.722;17.652;2022-08-19T07:58:12;99807.56;;;30.24;42.08
70728;BME280;58314;47.722;17.652;2022-08-19T08:01:16;99799.38;;;30.24;42.16
70728;BME280;58314;47.722;17.652;2022-08-19T08:04:18;99793.06;;;30.30;41.74
70728;BME280;58314;47.722;17.652;2022-08-19T08:07:37;99775.00;;;30.42;40.98
70728;BME280;58314;47.722;17.652;2022-08-19T08:10:56;99773.00;;;30.63;41.79
70728;BME280;58314;47.722;17.652;2022-08-19T08:13:56;99769.56;;;30.74;41.52
70728;BME280;58314;47.722;17.652;2022-08-19T08:16:59;99772.47;;;30.79;40.71
70728;BME280;58314;47.722;17.652;2022-08-19T08:19:59;99758.97;;;30.91;40.71
70728;BME280;58314;47.722;17.652;2022-08-19T08:23:00;99764.88;;;30.88;41.71
70728;BME280;58314;47.722;17.652;2022-08-19T08:26:19;99764.34;;;30.73;40.76
70728;BME280;58314;47.722;17.652;2022-08-19T08:29:20;99765.59;;;31.09;40.62
70728;BME280;58314;47.722;17.652;2022-08-19T08:32:23;99762.72;;;31.29;38.91
70728;BME280;58314;47.722;17.652;2022-08-19T08:35:24;99760.94;;;31.41;38.90
70728;BME280;58314;47.722;17.652;2022-08-19T08:38:25;99761.72;;;31.48;39.17
70728;BME280;58314;47.722;17.652;2022-08-19T08:44:58;99769.41;;;31.33;38.92
70728;BME280;58314;47.722;17.652;2022-08-19T08:48:04;99778.13;;;31.23;39.66
70728;BME280;58314;47.722;17.652;2022-08-19T08:51:11;99764.34;;;31.37;38.98
70728;BME280;58314;47.722;17.652;2022-08-19T08:54:18;99775.06;;;31.38;39.36
70728;BME280;58314;47.722;17.652;2022-08-19T08:57:39;99771.63;;;31.49;38.92
70728;BME280;58314;47.722;17.652;2022-08-19T09:00:43;99770.66;;;32.06;37.97
70728;BME280;58314;47.722;17.652;2022-08-19T09:03:45;99776.41;;;31.98;37.60
70728;BME280;58314;47.722;17.652;2022-08-19T09:06:51;99769.56;;;31.88;37.91
70728;BME280;58314;47.722;17.652;2022-08-19T09:10:04;99770.16;;;31.72;38.17
70728;BME280;58314;47.722;17.652;2022-08-19T09:16:20;99753.28;;;31.75;38.25
70728;BME280;58314;47.722;17.652;2022-08-19T09:19:22;99763.19;;;31.95;38.00
70728;BME280;58314;47.722;17.652;2022-08-19T09:22:23;99760.25;;;32.33;37.68
70728;BME280;58314;47.722;17.652;2022-08-19T09:25:24;99759.38;;;32.51;39.23
70728;BME280;58314;47.722;17.652;2022-08-19T09:28:24;99745.88;;;32.87;35.98
70728;BME280;58314;47.722;17.652;2022-08-19T09:31:30;99751.84;;;32.95;35.91
70728;BME280;58314;47.722;17.652;2022-08-19T09:34:32;99752.41;;;32.86;35.75
70728;BME280;58314;47.722;17.652;2022-08-19T09:37:33;99754.22;;;32.92;35.51
70728;BME280;58314;47.722;17.652;2022-08-19T09:40:34;99758.84;;;32.91;35.48
70728;BME280;58314;47.722;17.652;2022-08-19T09:43:35;99757.34;;;33.07;34.29
70728;BME280;58314;47.722;17.652;2022-08-19T09:46:38;99755.81;;;33.11;35.03
70728;BME280;58314;47.722;17.652;2022-08-19T09:49:40;99753.53;;;33.08;35.44
70728;BME280;58314;47.722;17.652;2022-08-19T09:52:41;99753.88;;;33.42;34.68
70728;BME280;58314;47.722;17.652;2022-08-19T09:55:43;99748.38;;;33.66;33.62
70728;BME280;58314;47.722;17.652;2022-08-19T09:58:44;99735.47;;;34.13;34.32
70728;BME280;58314;47.722;17.652;2022-08-19T10:01:45;99740.72;;;34.03;36.59
70728;BME280;58314;47.722;17.652;2022-08-19T10:04:46;99738.59;;;34.46;36.22
70728;BME280;58314;47.722;17.652;2022-08-19T10:08:05;99744.41;;;34.21;35.17
70728;BME280;58314;47.722;17.652;2022-08-19T10:11:05;99748.84;;;33.39;35.72
70728;BME280;58314;47.722;17.652;2022-08-19T10:14:06;99750.16;;;33.25;36.86
70728;BME280;58314;47.722;17.652;2022-08-19T10:17:07;99750.06;;;33.01;36.59
70728;BME280;58314;47.722;17.652;2022-08-19T10:20:08;99754.31;;;32.85;36.77
70728;BME280;58314;47.722;17.652;2022-08-19T10:23:09;99765.19;;;33.03;37.02
70728;BME280;58314;47.722;17.652;2022-08-19T10:26:12;99760.63;;;33.16;37.97
70728;BME280;58314;47.722;17.652;2022-08-19T10:29:13;99777.75;;;32.81;38.54
70728;BME280;58314;47.722;17.652;2022-08-19T10:32:16;99785.72;;;32.52;39.15
70728;BME280;58314;47.722;17.652;2022-08-19T10:35:16;99796.00;;;32.38;39.68
70728;BME280;58314;47.722;17.652;2022-08-19T10:38:17;99807.72;;;31.83;40.68
70728;BME280;58314;47.722;17.652;2022-08-19T10:41:23;99823.78;;;31.48;41.54
70728;BME280;58314;47.722;17.652;2022-08-19T10:44:25;99816.31;;;31.30;41.99
70728;BME280;58314;47.722;17.652;2022-08-19T10:47:25;99816.63;;;31.22;41.55
70728;BME280;58314;47.722;17.652;2022-08-19T10:50:26;99810.81;;;31.37;42.04
70728;BME280;58314;47.722;17.652;2022-08-19T10:53:45;99812.97;;;31.28;42.05
70728;BME280;58314;47.722;17.652;2022-08-19T10:56:46;99816.84;;;31.45;41.70
70728;BME280;58314;47.722;17.652;2022-08-19T10:59:53;99807.34;;;31.23;41.32
70728;BME280;58314;47.722;17.652;2022-08-19T11:02:53;99808.25;;;31.16;41.88
70728;BME280;58314;47.722;17.652;2022-08-19T11:06:02;99812.69;;;31.68;41.60
70728;BME280;58314;47.722;17.652;2022-08-19T11:09:04;99810.03;;;31.29;41.66
70728;BME280;58314;47.722;17.652;2022-08-19T11:12:05;99812.28;;;31.07;41.81
70728;BME280;58314;47.722;17.652;2022-08-19T11:15:07;99815.72;;;30.96;42.10
70728;BME280;58314;47.722;17.652;2022-08-19T11:18:09;99812.94;;;30.64;42.35
70728;BME280;58314;47.722;17.652;2022-08-19T11:21:16;99816.28;;;30.59;41.66
70728;BME280;58314;47.722;17.652;2022-08-19T11:24:22;99816.69;;;30.63;41.76
70728;BME280;58314;47.722;17.652;2022-08-19T11:27:23;99816.47;;;30.71;42.95
70728;BME280;58314;47.722;17.652;2022-08-19T11:30:24;99815.88;;;30.63;42.48
70728;BME280;58314;47.722;17.652;2022-08-19T11:33:25;99825.91;;;30.69;42.57
70728;BME280;58314;47.722;17.652;2022-08-19T11:36:27;99820.47;;;30.62;42.34
70728;BME280;58314;47.722;17.652;2022-08-19T11:39:29;99826.81;;;30.56;42.76
70728;BME280;58314;47.722;17.652;2022-08-19T11:42:30;99826.72;;;30.69;42.88
70728;BME280;58314;47.722;17.652;2022-08-19T11:46:06;99822.03;;;30.83;43.04
70728;BME280;58314;47.722;17.652;2022-08-19T11:49:07;99827.34;;;30.78;42.54
70728;BME280;58314;47.722;17.652;2022-08-19T11:52:11;99830.31;;;30.76;42.05
70728;BME280;58314;47.722;17.652;2022-08-19T11:55:13;99833.47;;;30.67;42.10
70728;BME280;58314;47.722;17.652;2022-08-19T11:58:16;99831.88;;;30.46;43.09
70728;BME280;58314;47.722;17.652;2022-08-19T12:01:20;99847.41;;;30.52;43.04
70728;BME280;58314;47.722;17.652;2022-08-19T12:04:22;99857.03;;;30.68;42.78
70728;BME280;58314;47.722;17.652;2022-08-19T12:07:22;99854.28;;;30.68;42.81
70728;BME280;58314;47.722;17.652;2022-08-19T12:10:25;99859.03;;;30.86;42.19
70728;BME280;58314;47.722;17.652;2022-08-19T12:13:26;99863.16;;;31.08;42.11
70728;BME280;58314;47.722;17.652;2022-08-19T12:16:28;99880.16;;;30.52;42.41
70728;BME280;58314;47.722;17.652;2022-08-19T12:19:29;99891.78;;;29.94;46.08
70728;BME280;58314;47.722;17.652;2022-08-19T12:22:30;99894.28;;;29.62;47.08
70728;BME280;58314;47.722;17.652;2022-08-19T12:25:31;99911.19;;;29.44;48.05
70728;BME280;58314;47.722;17.652;2022-08-19T12:28:32;99912.13;;;29.03;49.83
70728;BME280;58314;47.722;17.652;2022-08-19T12:31:33;99912.81;;;28.70;53.72
70728;BME280;58314;47.722;17.652;2022-08-19T12:34:33;99892.41;;;28.59;50.08
70728;BME280;58314;47.722;17.652;2022-08-19T12:37:34;99890.72;;;28.93;48.01
70728;BME280;58314;47.722;17.652;2022-08-19T12:40:35;99889.50;;;28.61;49.72
70728;BME280;58314;47.722;17.652;2022-08-19T12:43:36;99895.84;;;28.74;49.42
70728;BME280;58314;47.722;17.652;2022-08-19T12:46:37;99920.03;;;29.53;48.83
70728;BME280;58314;47.722;17.652;2022-08-19T12:49:38;99932.69;;;29.87;48.40
70728;BME280;58314;47.722;17.652;2022-08-19T12:52:39;99935.13;;;29.48;48.58
70728;BME280;58314;47.722;17.652;2022-08-19T12:55:42;99940.53;;;29.35;49.63
70728;BME280;58314;47.722;17.652;2022-08-19T12:58:43;99943.22;;;29.28;49.71
70728;BME280;58314;47.722;17.652;2022-08-19T13:01:44;99938.06;;;28.99;50.18
70728;BME280;58314;47.722;17.652;2022-08-19T13:04:45;99937.16;;;28.85;49.79
70728;BME280;58314;47.722;17.652;2022-08-19T13:07:46;99947.34;;;28.69;50.43
70728;BME280;58314;47.722;17.652;2022-08-19T13:10:47;99946.88;;;29.01;49.94
70728;BME280;58314;47.722;17.652;2022-08-19T13:13:49;99951.41;;;28.80;49.18
70728;BME280;58314;47.722;17.652;2022-08-19T13:16:51;99949.31;;;28.82;49.63
70728;BME280;58314;47.722;17.652;2022-08-19T13:19:51;99946.78;;;28.81;48.85
70728;BME280;58314;47.722;17.652;2022-08-19T13:22:52;99942.44;;;28.93;48.19
70728;BME280;58314;47.722;17.652;2022-08-19T13:26:00;99936.53;;;28.83;48.61
70728;BME280;58314;47.722;17.652;2022-08-19T13:29:02;99920.88;;;28.91;48.11
70728;BME280;58314;47.722;17.652;2022-08-19T13:32:21;99895.78;;;28.54;47.65
70728;BME280;58314;47.722;17.652;2022-08-19T13:35:50;99887.53;;;28.48;46.91
70728;BME280;58314;47.722;17.652;2022-08-19T13:38:52;99869.16;;;28.22;48.12
70728;BME280;58314;47.722;17.652;2022-08-19T13:41:52;99884.41;;;28.16;48.41
70728;BME280;58314;47.722;17.652;2022-08-19T13:44:53;99888.50;;;28.05;48.77
70728;BME280;58314;47.722;17.652;2022-08-19T13:47:56;99886.03;;;27.89;49.04
70728;BME280;58314;47.722;17.652;2022-08-19T13:50:57;99885.59;;;27.64;49.35
70728;BME280;58314;47.722;17.652;2022-08-19T13:53:58;99868.50;;;27.27;52.38
70728;BME280;58314;47.722;17.652;2022-08-19T13:56:59;99870.75;;;25.74;74.70
70728;BME280;58314;47.722;17.652;2022-08-19T14:00:00;99828.03;;;23.30;95.87
70728;BME280;58314;47.722;17.652;2022-08-19T14:03:01;99799.63;;;22.43;100.00
70728;BME280;58314;47.722;17.652;2022-08-19T14:06:02;99788.84;;;22.08;100.00
70728;BME280;58314;47.722;17.652;2022-08-19T14:09:04;99799.47;;;22.44;100.00
70728;BME280;58314;47.722;17.652;2022-08-19T14:12:05;99815.28;;;22.31;100.00
70728;BME280;58314;47.722;17.652;2022-08-19T14:15:07;99823.72;;;22.36;100.00
70728;BME280;58314;47.722;17.652;2022-08-19T14:18:09;99816.88;;;21.89;100.00
70728;BME280;58314;47.722;17.652;2022-08-19T14:21:20;99831.38;;;22.23;100.00
70728;BME280;58314;47.722;17.652;2022-08-19T14:24:21;99853.47;;;21.82;100.00
70728;BME280;58314;47.722;17.652;2022-08-19T14:27:21;99863.41;;;21.81;100.00
70728;BME280;58314;47.722;17.652;2022-08-19T14:30:30;99862.00;;;21.95;100.00
70728;BME280;58314;47.722;17.652;2022-08-19T14:33:32;99851.97;;;22.06;100.00
70728;BME280;58314;47.722;17.652;2022-08-19T14:36:32;99821.38;;;21.89;100.00
70728;BME280;58314;47.722;17.652;2022-08-19T14:39:44;99810.34;;;22.00;100.00
70728;BME280;58314;47.722;17.652;2022-08-19T14:42:45;99802.69;;;21.87;100.00
70728;BME280;58314;47.722;17.652;2022-08-19T14:45:52;99781.56;;;21.74;100.00
70728;BME280;58314;47.722;17.652;2022-08-19T14:48:57;99767.94;;;22.02;100.00
70728;BME280;58314;47.722;17.652;2022-08-19T14:51:58;99777.78;;;22.19;100.00
70728;BME280;58314;47.722;17.652;2022-08-19T14:54:59;99755.56;;;22.17;100.00
70728;BME280;58314;47.722;17.652;2022-08-19T14:58:07;99766.72;;;22.82;100.00
70728;BME280;58314;47.722;17.652;2022-08-19T15:01:09;99791.88;;;23.97;100.00
70728;BME280;58314;47.722;17.652;2022-08-19T15:04:12;99797.53;;;24.27;100.00
70728;BME280;58314;47.722;17.652;2022-08-19T15:07:13;99815.00;;;24.48;88.29
70728;BME280;58314;47.722;17.652;2022-08-19T15:10:15;99794.28;;;24.32;92.03
70728;BME280;58314;47.722;17.652;2022-08-19T15:13:16;99796.25;;;24.06;94.44
70728;BME280;58314;47.722;17.652;2022-08-19T15:16:18;99797.97;;;23.75;93.49
70728;BME280;58314;47.722;17.652;2022-08-19T15:19:18;99798.31;;;23.72;91.35
70728;BME280;58314;47.722;17.652;2022-08-19T15:22:20;99797.81;;;23.52;87.74
70728;BME280;58314;47.722;17.652;2022-08-19T15:25:20;99793.94;;;23.46;89.13
70728;BME280;58314;47.722;17.652;2022-08-19T15:28:23;99799.34;;;23.46;90.19
70728;BME280;58314;47.722;17.652;2022-08-19T15:31:23;99811.81;;;23.22;89.41
70728;BME280;58314;47.722;17.652;2022-08-19T15:34:24;99792.09;;;23.38;88.31
70728;BME280;58314;47.722;17.652;2022-08-19T15:37:25;99782.59;;;23.01;93.31
70728;BME280;58314;47.722;17.652;2022-08-19T15:40:26;99783.09;;;23.05;91.96
70728;BME280;58314;47.722;17.652;2022-08-19T15:43:27;99779.72;;;22.86;91.46
70728;BME280;58314;47.722;17.652;2022-08-19T15:46:32;99783.75;;;22.82;90.23
70728;BME280;58314;47.722;17.652;2022-08-19T15:49:35;99804.66;;;22.97;88.47
70728;BME280;58314;47.722;17.652;2022-08-19T15:52:53;99799.97;;;22.99;88.84
70728;BME280;58314;47.722;17.652;2022-08-19T15:55:54;99797.06;;;22.84;90.82
70728;BME280;58314;47.722;17.652;2022-08-19T15:58:59;99803.16;;;22.94;87.94
70728;BME280;58314;47.722;17.652;2022-08-19T16:02:25;99792.22;;;22.96;88.19